To NAV CANADA Home Page Login to a new session Search on AWWS site Feedback and Comments Disclaimer Vers la page française équivalente Tips FAQ What's new on the site To the Forecasts and Observations / NOTAM section To "File a Flight Plan" website Publications and other links Update of the User's profile FIC Telephone Numbers My Weather Data Folder Route Weather Data Regional Weather Data Local Weather Data To the Forecasts and Observations / NOTAM section
Request Generated 05/30/2016 at 10:34:54 UTC . Weather information available at that time is displayed.

METAR/TAF

CHURCHILL/MB    (show WxCam)

METAR CYYQ 301000Z 06007KT 5SM BR OVC005 M04/M04 A3023 RMK ST8
SLP242=
METAR CYYQ 300900Z 06010KT 5SM BR OVC007 M04/M04 A3022 RMK ST8
SLP238=
METAR CYYQ 300800Z 06009KT 5SM BR OVC007 M03/M04 A3021 RMK ST8
SLP235=

TAF AMD CYYQ 300707Z 3007/3106 08012KT 3SM BR BKN007 TEMPO 3007/3014
1SM BR OVC003 PROB40 3007/3014 1/2SM FZFG VV002
FM301400 06012KT P6SM BKN006 TEMPO 3014/3019 2SM BR BKN004
FM301900 06015KT P6SM BKN010
FM310300 06015KT P6SM BKN008
RMK NXT FCST BY 301200Z=
Your time UTC time
Weather data provided by Environment Canada and NAV CANADA